sensor_id;sensor_type;location;lat;lon;timestamp;pressure;altitude;pressure_sealevel;temperature;humidity
15260;BME280;34462;51.368;12.364;2023-02-27T00:00:09;18868.91;;;-141.84;66.61
15260;BME280;34462;51.368;12.364;2023-02-27T00:02:41;18909.53;;;-141.84;66.04
15260;BME280;34462;51.368;12.364;2023-02-27T00:05:10;18848.59;;;-141.84;66.23
15260;BME280;34462;51.368;12.364;2023-02-27T00:07:39;18877.03;;;-141.84;66.72
15260;BME280;34462;51.368;12.364;2023-02-27T00:10:11;18868.91;;;-141.84;67.17
15260;BME280;34462;51.368;12.364;2023-02-27T00:12:41;18848.59;;;-141.84;67.49
15260;BME280;34462;51.368;12.364;2023-02-27T00:15:12;18848.59;;;-141.84;68.15
15260;BME280;34462;51.368;12.364;2023-02-27T00:17:42;18858.75;;;-141.84;68.01
15260;BME280;34462;51.368;12.364;2023-02-27T00:20:14;18868.91;;;-141.84;68.36
15260;BME280;34462;51.368;12.364;2023-02-27T00:22:44;18850.63;;;-141.84;68.66
15260;BME280;34462;51.368;12.364;2023-02-27T00:25:14;18844.53;;;-141.84;68.58
15260;BME280;34462;51.368;12.364;2023-02-27T00:27:43;18846.56;;;-141.84;68.17
15260;BME280;34462;51.368;12.364;2023-02-27T00:30:13;18838.44;;;-141.84;68.78
15260;BME280;34462;51.368;12.364;2023-02-27T00:32:43;18866.88;;;-141.84;68.99
15260;BME280;34462;51.368;12.364;2023-02-27T00:35:11;18822.19;;;-141.84;68.28
15260;BME280;34462;51.368;12.364;2023-02-27T00:37:40;18872.97;;;-141.84;68.10
15260;BME280;34462;51.368;12.364;2023-02-27T00:40:10;18844.53;;;-141.84;68.13
15260;BME280;34462;51.368;12.364;2023-02-27T00:42:40;18905.47;;;-141.84;68.25
15260;BME280;34462;51.368;12.364;2023-02-27T00:45:09;18840.47;;;-141.84;67.83
15260;BME280;34462;51.368;12.364;2023-02-27T00:47:37;18883.13;;;-141.84;67.63
15260;BME280;34462;51.368;12.364;2023-02-27T00:50:07;18846.56;;;-141.84;67.33
15260;BME280;34462;51.368;12.364;2023-02-27T00:52:35;18899.38;;;-141.84;67.26
15260;BME280;34462;51.368;12.364;2023-02-27T00:55:04;18858.75;;;-141.84;67.80
15260;BME280;34462;51.368;12.364;2023-02-27T00:57:33;18840.47;;;-141.84;68.42
15260;BME280;34462;51.368;12.364;2023-02-27T01:00:04;18844.53;;;-141.84;69.04
15260;BME280;34462;51.368;12.364;2023-02-27T01:02:33;18860.78;;;-141.84;68.75
15260;BME280;34462;51.368;12.364;2023-02-27T01:05:02;18838.44;;;-141.84;69.32
15260;BME280;34462;51.368;12.364;2023-02-27T01:07:30;18824.22;;;-141.84;69.56
15260;BME280;34462;51.368;12.364;2023-02-27T01:09:59;18846.56;;;-141.84;69.63
15260;BME280;34462;51.368;12.364;2023-02-27T01:12:27;18838.44;;;-141.84;70.32
15260;BME280;34462;51.368;12.364;2023-02-27T01:14:56;18828.28;;;-141.84;70.57
15260;BME280;34462;51.368;12.364;2023-02-27T01:17:25;18826.25;;;-141.84;70.74
15260;BME280;34462;51.368;12.364;2023-02-27T01:19:53;18850.63;;;-141.84;70.57
15260;BME280;34462;51.368;12.364;2023-02-27T01:22:21;18850.63;;;-141.84;70.59
15260;BME280;34462;51.368;12.364;2023-02-27T01:24:50;18868.91;;;-141.84;70.71
15260;BME280;34462;51.368;12.364;2023-02-27T01:27:18;18862.81;;;-141.84;70.20
15260;BME280;34462;51.368;12.364;2023-02-27T01:29:46;18836.41;;;-141.84;70.85
15260;BME280;34462;51.368;12.364;2023-02-27T01:32:14;18834.38;;;-141.84;70.55
15260;BME280;34462;51.368;12.364;2023-02-27T01:34:44;18854.69;;;-141.84;70.15
15260;BME280;34462;51.368;12.364;2023-02-27T01:37:12;18856.72;;;-141.84;70.46
15260;BME280;34462;51.368;12.364;2023-02-27T01:39:40;18862.81;;;-141.84;69.82
15260;BME280;34462;51.368;12.364;2023-02-27T01:42:19;18860.78;;;-141.84;69.27
15260;BME280;34462;51.368;12.364;2023-02-27T01:45:24;18864.84;;;-141.84;69.41
15260;BME280;34462;51.368;12.364;2023-02-27T01:47:59;18842.50;;;-141.84;68.66
15260;BME280;34462;51.368;12.364;2023-02-27T01:50:32;18875.00;;;-141.84;68.51
15260;BME280;34462;51.368;12.364;2023-02-27T01:53:03;18862.81;;;-141.84;68.13
15260;BME280;34462;51.368;12.364;2023-02-27T01:55:37;18881.09;;;-141.84;67.46
15260;BME280;34462;51.368;12.364;2023-02-27T01:58:09;18895.31;;;-141.84;66.65
15260;BME280;34462;51.368;12.364;2023-02-27T02:00:38;18856.72;;;-141.84;67.03
15260;BME280;34462;51.368;12.364;2023-02-27T02:03:16;18887.19;;;-141.84;66.47
15260;BME280;34462;51.368;12.364;2023-02-27T02:05:46;18905.47;;;-141.84;66.56
15260;BME280;34462;51.368;12.364;2023-02-27T02:08:19;18893.28;;;-141.84;66.41
15260;BME280;34462;51.368;12.364;2023-02-27T02:10:50;18862.81;;;-141.84;66.89
15260;BME280;34462;51.368;12.364;2023-02-27T02:13:21;18860.78;;;-141.84;66.38
15260;BME280;34462;51.368;12.364;2023-02-27T02:16:13;18875.00;;;-141.84;67.16
15260;BME280;34462;51.368;12.364;2023-02-27T02:18:54;18881.09;;;-141.84;67.89
15260;BME280;34462;51.368;12.364;2023-02-27T02:22:06;18856.72;;;-141.84;67.73
15260;BME280;34462;51.368;12.364;2023-02-27T02:28:23;18913.59;;;-141.84;67.24
15260;BME280;34462;51.368;12.364;2023-02-27T02:31:30;18889.22;;;-141.84;67.17
15260;BME280;34462;51.368;12.364;2023-02-27T02:40:53;18903.44;;;-141.84;68.10
15260;BME280;34462;51.368;12.364;2023-02-27T02:43:29;18883.13;;;-141.84;68.15
15260;BME280;34462;51.368;12.364;2023-02-27T02:46:06;18875.00;;;-141.84;68.54
15260;BME280;34462;51.368;12.364;2023-02-27T02:48:44;18883.13;;;-141.84;68.57
15260;BME280;34462;51.368;12.364;2023-02-27T02:51:22;18893.28;;;-141.84;69.09
15260;BME280;34462;51.368;12.364;2023-02-27T02:54:04;18866.88;;;-141.84;69.11
15260;BME280;34462;51.368;12.364;2023-02-27T02:56:45;18905.47;;;-141.84;68.95
15260;BME280;34462;51.368;12.364;2023-02-27T02:59:26;18895.31;;;-141.84;69.07
15260;BME280;34462;51.368;12.364;2023-02-27T03:02:04;18866.88;;;-141.84;69.26
15260;BME280;34462;51.368;12.364;2023-02-27T03:04:39;18862.81;;;-141.84;69.36
15260;BME280;34462;51.368;12.364;2023-02-27T03:07:13;18856.72;;;-141.84;69.90
15260;BME280;34462;51.368;12.364;2023-02-27T03:09:49;18875.00;;;-141.84;70.20
15260;BME280;34462;51.368;12.364;2023-02-27T03:12:23;18889.22;;;-141.84;69.31
15260;BME280;34462;51.368;12.364;2023-02-27T03:14:59;18887.19;;;-141.84;68.93
15260;BME280;34462;51.368;12.364;2023-02-27T03:17:38;18899.38;;;-141.84;68.52
15260;BME280;34462;51.368;12.364;2023-02-27T03:20:16;18879.06;;;-141.84;69.35
15260;BME280;34462;51.368;12.364;2023-02-27T03:22:51;18893.28;;;-141.84;69.90
15260;BME280;34462;51.368;12.364;2023-02-27T03:25:24;18893.28;;;-141.84;69.76
15260;BME280;34462;51.368;12.364;2023-02-27T03:27:59;18893.28;;;-141.84;69.97
15260;BME280;34462;51.368;12.364;2023-02-27T03:30:34;18875.00;;;-141.84;69.09
15260;BME280;34462;51.368;12.364;2023-02-27T03:33:10;18933.94;;;-141.84;68.98
15260;BME280;34462;51.368;12.364;2023-02-27T03:35:47;18887.19;;;-141.84;69.61
15260;BME280;34462;51.368;12.364;2023-02-27T03:38:27;18866.88;;;-141.84;68.57
15260;BME280;34462;51.368;12.364;2023-02-27T03:41:08;18877.03;;;-141.84;68.66
15260;BME280;34462;51.368;12.364;2023-02-27T03:43:48;18899.38;;;-141.84;69.38
15260;BME280;34462;51.368;12.364;2023-02-27T03:46:22;18870.94;;;-141.84;69.77
15260;BME280;34462;51.368;12.364;2023-02-27T03:48:52;18897.34;;;-141.84;69.92
15260;BME280;34462;51.368;12.364;2023-02-27T03:51:23;18870.94;;;-141.84;69.52
15260;BME280;34462;51.368;12.364;2023-02-27T03:54:00;18887.19;;;-141.84;69.04
15260;BME280;34462;51.368;12.364;2023-02-27T03:56:38;18879.06;;;-141.84;69.73
15260;BME280;34462;51.368;12.364;2023-02-27T03:59:09;18866.88;;;-141.84;69.33
15260;BME280;34462;51.368;12.364;2023-02-27T04:01:37;18923.78;;;-141.84;69.41
15260;BME280;34462;51.368;12.364;2023-02-27T04:04:11;18862.81;;;-141.84;69.84
15260;BME280;34462;51.368;12.364;2023-02-27T04:06:45;18887.19;;;-141.84;70.16
15260;BME280;34462;51.368;12.364;2023-02-27T04:13:14;18905.47;;;-141.84;69.71
15260;BME280;34462;51.368;12.364;2023-02-27T04:19:22;18915.63;;;-141.84;68.38
15260;BME280;34462;51.368;12.364;2023-02-27T04:22:07;18905.47;;;-141.84;69.08
15260;BME280;34462;51.368;12.364;2023-02-27T04:24:52;18931.91;;;-141.84;68.51
15260;BME280;34462;51.368;12.364;2023-02-27T04:27:35;18911.56;;;-141.84;67.52
15260;BME280;34462;51.368;12.364;2023-02-27T04:30:18;18911.56;;;-141.84;67.80
15260;BME280;34462;51.368;12.364;2023-02-27T04:32:58;18911.56;;;-141.84;68.62
15260;BME280;34462;51.368;12.364;2023-02-27T04:35:36;18901.41;;;-141.84;67.53
15260;BME280;34462;51.368;12.364;2023-02-27T04:38:15;18868.91;;;-141.84;68.20
15260;BME280;34462;51.368;12.364;2023-02-27T04:40:52;18895.31;;;-141.84;68.54
15260;BME280;34462;51.368;12.364;2023-02-27T04:43:23;18879.06;;;-141.84;69.20
15260;BME280;34462;51.368;12.364;2023-02-27T04:45:57;18862.81;;;-141.84;69.80
15260;BME280;34462;51.368;12.364;2023-02-27T04:48:34;18895.31;;;-141.84;69.86
15260;BME280;34462;51.368;12.364;2023-02-27T04:51:09;18848.59;;;-141.84;69.50
15260;BME280;34462;51.368;12.364;2023-02-27T04:53:48;18875.00;;;-141.84;70.04
15260;BME280;34462;51.368;12.364;2023-02-27T04:56:26;18891.25;;;-141.84;69.92
15260;BME280;34462;51.368;12.364;2023-02-27T04:59:00;18885.16;;;-141.84;70.21
15260;BME280;34462;51.368;12.364;2023-02-27T05:01:38;18891.25;;;-141.84;69.88
15260;BME280;34462;51.368;12.364;2023-02-27T05:04:15;18872.97;;;-141.84;69.07
15260;BME280;34462;51.368;12.364;2023-02-27T05:06:47;18897.34;;;-141.84;68.11
15260;BME280;34462;51.368;12.364;2023-02-27T05:09:25;18897.34;;;-141.84;68.49
15260;BME280;34462;51.368;12.364;2023-02-27T05:12:00;18903.44;;;-141.84;68.33
15260;BME280;34462;51.368;12.364;2023-02-27T05:14:35;18905.47;;;-141.84;68.77
15260;BME280;34462;51.368;12.364;2023-02-27T05:17:10;18903.44;;;-141.84;69.52
15260;BME280;34462;51.368;12.364;2023-02-27T05:19:43;18885.16;;;-141.84;70.18
15260;BME280;34462;51.368;12.364;2023-02-27T05:22:25;18875.00;;;-141.84;69.99
15260;BME280;34462;51.368;12.364;2023-02-27T05:25:02;18866.88;;;-141.84;70.62
15260;BME280;34462;51.368;12.364;2023-02-27T05:27:43;18883.13;;;-141.84;71.04
15260;BME280;34462;51.368;12.364;2023-02-27T05:30:22;18846.56;;;-141.84;71.83
15260;BME280;34462;51.368;12.364;2023-02-27T05:32:57;18872.97;;;-141.84;72.37
15260;BME280;34462;51.368;12.364;2023-02-27T05:35:35;18842.50;;;-141.84;72.21
15260;BME280;34462;51.368;12.364;2023-02-27T05:38:09;18850.63;;;-141.84;73.15
15260;BME280;34462;51.368;12.364;2023-02-27T05:40:45;18826.25;;;-141.84;73.84
15260;BME280;34462;51.368;12.364;2023-02-27T05:43:20;18797.78;;;-141.84;74.57
15260;BME280;34462;51.368;12.364;2023-02-27T05:45:55;18826.25;;;-141.84;75.33
15260;BME280;34462;51.368;12.364;2023-02-27T05:48:30;18816.06;;;-141.84;75.92
15260;BME280;34462;51.368;12.364;2023-02-27T05:51:02;18836.41;;;-141.84;75.57
15260;BME280;34462;51.368;12.364;2023-02-27T05:53:40;18864.84;;;-141.84;75.00
15260;BME280;34462;51.368;12.364;2023-02-27T05:56:14;18826.25;;;-141.84;75.59
15260;BME280;34462;51.368;12.364;2023-02-27T05:58:50;18809.97;;;-141.84;76.31
15260;BME280;34462;51.368;12.364;2023-02-27T06:01:21;18824.22;;;-141.84;76.71
15260;BME280;34462;51.368;12.364;2023-02-27T06:03:49;18824.22;;;-141.84;76.61
15260;BME280;34462;51.368;12.364;2023-02-27T06:06:19;18787.63;;;-141.84;77.36
15260;BME280;34462;51.368;12.364;2023-02-27T06:08:49;18799.81;;;-141.84;77.57
15260;BME280;34462;51.368;12.364;2023-02-27T06:11:17;18809.97;;;-141.84;77.38
15260;BME280;34462;51.368;12.364;2023-02-27T06:13:45;18826.25;;;-141.84;77.69
15260;BME280;34462;51.368;12.364;2023-02-27T06:16:14;18826.25;;;-141.84;77.86
15260;BME280;34462;51.368;12.364;2023-02-27T06:18:43;18838.44;;;-141.84;76.87
15260;BME280;34462;51.368;12.364;2023-02-27T06:21:12;18799.81;;;-141.84;77.25
15260;BME280;34462;51.368;12.364;2023-02-27T06:23:42;18826.25;;;-141.84;77.16
15260;BME280;34462;51.368;12.364;2023-02-27T06:26:10;18795.75;;;-141.84;76.86
15260;BME280;34462;51.368;12.364;2023-02-27T06:28:40;18793.72;;;-141.84;76.55
15260;BME280;34462;51.368;12.364;2023-02-27T06:31:08;18816.06;;;-141.84;76.51
15260;BME280;34462;51.368;12.364;2023-02-27T06:33:36;18816.06;;;-141.84;76.73
15260;BME280;34462;51.368;12.364;2023-02-27T06:36:05;18838.44;;;-141.84;76.67
15260;BME280;34462;51.368;12.364;2023-02-27T06:38:34;18830.31;;;-141.84;75.84
15260;BME280;34462;51.368;12.364;2023-02-27T06:41:04;18822.19;;;-141.84;76.13
15260;BME280;34462;51.368;12.364;2023-02-27T06:43:33;18864.84;;;-141.84;76.51
15260;BME280;34462;51.368;12.364;2023-02-27T06:46:03;18844.53;;;-141.84;76.38
15260;BME280;34462;51.368;12.364;2023-02-27T06:48:31;18828.28;;;-141.84;75.68
15260;BME280;34462;51.368;12.364;2023-02-27T06:50:59;18870.94;;;-141.84;75.41
15260;BME280;34462;51.368;12.364;2023-02-27T06:53:27;18854.69;;;-141.84;75.23
15260;BME280;34462;51.368;12.364;2023-02-27T06:55:56;18875.00;;;-141.84;74.82
15260;BME280;34462;51.368;12.364;2023-02-27T06:58:25;18868.91;;;-141.84;73.86
15260;BME280;34462;51.368;12.364;2023-02-27T07:00:57;18846.56;;;-141.84;73.57
15260;BME280;34462;51.368;12.364;2023-02-27T07:03:26;18883.13;;;-141.84;71.67
15260;BME280;34462;51.368;12.364;2023-02-27T07:05:56;18868.91;;;-141.84;71.38
15260;BME280;34462;51.368;12.364;2023-02-27T07:08:25;18897.34;;;-141.84;71.58
15260;BME280;34462;51.368;12.364;2023-02-27T07:10:53;18901.41;;;-141.84;71.14
15260;BME280;34462;51.368;12.364;2023-02-27T07:13:21;18903.44;;;-141.84;71.71
15260;BME280;34462;51.368;12.364;2023-02-27T07:15:50;18885.16;;;-141.84;71.91
15260;BME280;34462;51.368;12.364;2023-02-27T07:18:19;18883.13;;;-141.84;71.13
15260;BME280;34462;51.368;12.364;2023-02-27T07:20:49;18893.28;;;-141.84;71.25
15260;BME280;34462;51.368;12.364;2023-02-27T07:23:18;18895.31;;;-141.84;70.97
15260;BME280;34462;51.368;12.364;2023-02-27T07:25:46;18875.00;;;-141.84;71.03
15260;BME280;34462;51.368;12.364;2023-02-27T07:28:15;18887.19;;;-141.84;70.75
15260;BME280;34462;51.368;12.364;2023-02-27T07:30:45;18907.50;;;-141.84;70.04
15260;BME280;34462;51.368;12.364;2023-02-27T07:33:15;18887.19;;;-141.84;70.13
15260;BME280;34462;51.368;12.364;2023-02-27T07:35:44;18913.59;;;-141.84;69.82
15260;BME280;34462;51.368;12.364;2023-02-27T07:38:12;18899.38;;;-141.84;70.15
15260;BME280;34462;51.368;12.364;2023-02-27T07:40:41;18915.63;;;-141.84;68.15
15260;BME280;34462;51.368;12.364;2023-02-27T07:43:09;18925.81;;;-141.84;67.81
15260;BME280;34462;51.368;12.364;2023-02-27T07:45:37;18944.09;;;-141.84;66.54
15260;BME280;34462;51.368;12.364;2023-02-27T07:48:06;18946.13;;;-141.84;66.09
15260;BME280;34462;51.368;12.364;2023-02-27T07:50:35;18964.41;;;-141.84;65.24
15260;BME280;34462;51.368;12.364;2023-02-27T07:53:03;18958.31;;;-141.84;64.48
15260;BME280;34462;51.368;12.364;2023-02-27T07:55:33;18980.66;;;-141.84;64.39
15260;BME280;34462;51.368;12.364;2023-02-27T07:58:02;18980.66;;;-141.84;64.64
15260;BME280;34462;51.368;12.364;2023-02-27T08:00:30;19033.50;;;-141.84;63.26
15260;BME280;34462;51.368;12.364;2023-02-27T08:02:58;19019.28;;;-141.84;62.35
15260;BME280;34462;51.368;12.364;2023-02-27T08:05:27;19033.50;;;-141.84;62.16
15260;BME280;34462;51.368;12.364;2023-02-27T08:07:57;19041.63;;;-141.84;62.16
15260;BME280;34462;51.368;12.364;2023-02-27T08:10:25;19031.47;;;-141.84;61.66
15260;BME280;34462;51.368;12.364;2023-02-27T08:12:54;19035.53;;;-141.84;61.89
15260;BME280;34462;51.368;12.364;2023-02-27T08:15:22;19063.97;;;-141.84;61.88
15260;BME280;34462;51.368;12.364;2023-02-27T08:17:50;19068.03;;;-141.84;62.33
15260;BME280;34462;51.368;12.364;2023-02-27T08:20:19;19039.59;;;-141.84;63.09
15260;BME280;34462;51.368;12.364;2023-02-27T08:22:48;19013.16;;;-141.84;63.53
15260;BME280;34462;51.368;12.364;2023-02-27T08:25:18;19025.38;;;-141.84;64.15
15260;BME280;34462;51.368;12.364;2023-02-27T08:27:47;19033.50;;;-141.84;64.35
15260;BME280;34462;51.368;12.364;2023-02-27T08:30:15;19015.19;;;-141.84;64.04
15260;BME280;34462;51.368;12.364;2023-02-27T08:32:44;19000.97;;;-141.84;64.39
15260;BME280;34462;51.368;12.364;2023-02-27T08:35:12;18992.84;;;-141.84;64.99
15260;BME280;34462;51.368;12.364;2023-02-27T08:37:41;19009.09;;;-141.84;65.19
15260;BME280;34462;51.368;12.364;2023-02-27T08:40:10;18990.81;;;-141.84;65.10
15260;BME280;34462;51.368;12.364;2023-02-27T08:42:40;18984.72;;;-141.84;65.14
15260;BME280;34462;51.368;12.364;2023-02-27T08:45:10;18978.63;;;-141.84;65.67
15260;BME280;34462;51.368;12.364;2023-02-27T08:47:38;19021.31;;;-141.84;64.89
15260;BME280;34462;51.368;12.364;2023-02-27T08:50:09;19005.03;;;-141.84;65.01
15260;BME280;34462;51.368;12.364;2023-02-27T08:52:38;18980.66;;;-141.84;65.10
15260;BME280;34462;51.368;12.364;2023-02-27T08:55:08;19021.31;;;-141.84;64.42
15260;BME280;34462;51.368;12.364;2023-02-27T08:57:36;19007.06;;;-141.84;63.81
15260;BME280;34462;51.368;12.364;2023-02-27T09:00:08;19047.72;;;-141.84;63.68
15260;BME280;34462;51.368;12.364;2023-02-27T09:02:40;19015.19;;;-141.84;63.99
15260;BME280;34462;51.368;12.364;2023-02-27T09:05:09;19031.47;;;-141.84;64.42
15260;BME280;34462;51.368;12.364;2023-02-27T09:07:37;19023.34;;;-141.84;64.17
15260;BME280;34462;51.368;12.364;2023-02-27T09:10:06;18984.72;;;-141.84;63.80
15260;BME280;34462;51.368;12.364;2023-02-27T09:12:34;19055.84;;;-141.84;63.38
15260;BME280;34462;51.368;12.364;2023-02-27T09:15:06;19017.25;;;-141.84;63.76
15260;BME280;34462;51.368;12.364;2023-02-27T09:17:35;19035.53;;;-141.84;63.29
15260;BME280;34462;51.368;12.364;2023-02-27T09:20:04;19037.56;;;-141.84;63.71
15260;BME280;34462;51.368;12.364;2023-02-27T09:22:35;19025.38;;;-141.84;63.29
15260;BME280;34462;51.368;12.364;2023-02-27T09:25:04;19070.06;;;-141.84;62.93
15260;BME280;34462;51.368;12.364;2023-02-27T09:27:32;19066.00;;;-141.84;63.85
15260;BME280;34462;51.368;12.364;2023-02-27T09:30:00;19066.00;;;-141.84;62.87
15260;BME280;34462;51.368;12.364;2023-02-27T09:32:30;19057.88;;;-141.84;63.73
15260;BME280;34462;51.368;12.364;2023-02-27T09:34:58;19076.16;;;-141.84;62.63
15260;BME280;34462;51.368;12.364;2023-02-27T09:37:26;19063.97;;;-141.84;63.27
15260;BME280;34462;51.368;12.364;2023-02-27T09:39:55;19070.06;;;-141.84;63.55
15260;BME280;34462;51.368;12.364;2023-02-27T09:42:30;19114.78;;;-141.84;61.40
15260;BME280;34462;51.368;12.364;2023-02-27T09:45:04;19114.78;;;-141.84;61.38
15260;BME280;34462;51.368;12.364;2023-02-27T09:47:39;19118.84;;;-141.84;60.38
15260;BME280;34462;51.368;12.364;2023-02-27T09:50:36;19106.66;;;-141.84;60.02
15260;BME280;34462;51.368;12.364;2023-02-27T09:53:12;19108.69;;;-141.84;59.60
15260;BME280;34462;51.368;12.364;2023-02-27T09:55:44;19149.31;;;-141.84;60.07
15260;BME280;34462;51.368;12.364;2023-02-27T09:58:39;19094.44;;;-141.84;60.87
15260;BME280;34462;51.368;12.364;2023-02-27T10:01:18;19072.09;;;-141.84;61.57
15260;BME280;34462;51.368;12.364;2023-02-27T10:04:21;19122.91;;;-141.84;61.65
15260;BME280;34462;51.368;12.364;2023-02-27T10:07:02;19092.41;;;-141.84;61.66
15260;BME280;34462;51.368;12.364;2023-02-27T10:09:45;19116.81;;;-141.84;60.54
15260;BME280;34462;51.368;12.364;2023-02-27T10:12:34;19112.75;;;-141.84;60.70
15260;BME280;34462;51.368;12.364;2023-02-27T10:15:12;19120.88;;;-141.84;60.92
15260;BME280;34462;51.368;12.364;2023-02-27T10:17:47;19126.97;;;-141.84;60.33
15260;BME280;34462;51.368;12.364;2023-02-27T10:20:27;19139.16;;;-141.84;60.38
15260;BME280;34462;51.368;12.364;2023-02-27T10:23:00;19149.31;;;-141.84;59.56
15260;BME280;34462;51.368;12.364;2023-02-27T10:25:39;19210.28;;;-141.84;58.25
15260;BME280;34462;51.368;12.364;2023-02-27T10:28:14;19192.00;;;-141.84;58.71
15260;BME280;34462;51.368;12.364;2023-02-27T10:30:47;19171.66;;;-141.84;58.44
15260;BME280;34462;51.368;12.364;2023-02-27T10:33:26;19175.72;;;-141.84;58.51
15260;BME280;34462;51.368;12.364;2023-02-27T10:36:00;19165.56;;;-141.84;59.53
15260;BME280;34462;51.368;12.364;2023-02-27T10:38:34;19139.16;;;-141.84;59.06
15260;BME280;34462;51.368;12.364;2023-02-27T10:41:06;19181.81;;;-141.84;59.29
15260;BME280;34462;51.368;12.364;2023-02-27T10:43:37;19159.47;;;-141.84;59.57
15260;BME280;34462;51.368;12.364;2023-02-27T10:46:13;19155.41;;;-141.84;59.61
15260;BME280;34462;51.368;12.364;2023-02-27T10:48:42;19149.31;;;-141.84;60.22
15260;BME280;34462;51.368;12.364;2023-02-27T10:51:32;19147.28;;;-141.84;59.95
15260;BME280;34462;51.368;12.364;2023-02-27T10:54:20;19175.72;;;-141.84;59.50
15260;BME280;34462;51.368;12.364;2023-02-27T10:56:52;19212.31;;;-141.84;57.57
15260;BME280;34462;51.368;12.364;2023-02-27T10:59:25;19189.97;;;-141.84;56.70
15260;BME280;34462;51.368;12.364;2023-02-27T11:01:56;19177.75;;;-141.84;55.99
15260;BME280;34462;51.368;12.364;2023-02-27T11:04:31;19212.31;;;-141.84;56.60
15260;BME280;34462;51.368;12.364;2023-02-27T11:07:05;19212.31;;;-141.84;56.94
15260;BME280;34462;51.368;12.364;2023-02-27T11:09:35;19187.91;;;-141.84;56.49
15260;BME280;34462;51.368;12.364;2023-02-27T11:12:18;19173.69;;;-141.84;57.17
15260;BME280;34462;51.368;12.364;2023-02-27T11:14:50;19224.50;;;-141.84;56.18
15260;BME280;34462;51.368;12.364;2023-02-27T11:17:24;19232.63;;;-141.84;55.80
15260;BME280;34462;51.368;12.364;2023-02-27T11:19:56;19206.22;;;-141.84;56.23
15260;BME280;34462;51.368;12.364;2023-02-27T11:22:28;19232.63;;;-141.84;56.15
15260;BME280;34462;51.368;12.364;2023-02-27T11:25:19;19216.38;;;-141.84;55.94
15260;BME280;34462;51.368;12.364;2023-02-27T11:27:48;19212.31;;;-141.84;56.06
15260;BME280;34462;51.368;12.364;2023-02-27T11:30:25;19250.91;;;-141.84;56.21
15260;BME280;34462;51.368;12.364;2023-02-27T11:32:57;19198.09;;;-141.84;55.84
15260;BME280;34462;51.368;12.364;2023-02-27T11:35:29;19220.44;;;-141.84;56.13
15260;BME280;34462;51.368;12.364;2023-02-27T11:38:03;19232.63;;;-141.84;56.34
15260;BME280;34462;51.368;12.364;2023-02-27T11:40:38;19244.81;;;-141.84;54.93
15260;BME280;34462;51.368;12.364;2023-02-27T11:43:18;19265.13;;;-141.84;54.34
15260;BME280;34462;51.368;12.364;2023-02-27T11:45:53;19291.56;;;-141.84;54.22
15260;BME280;34462;51.368;12.364;2023-02-27T11:48:47;19263.09;;;-141.84;54.14
15260;BME280;34462;51.368;12.364;2023-02-27T11:51:46;19265.13;;;-141.84;53.59
15260;BME280;34462;51.368;12.364;2023-02-27T11:54:34;19263.09;;;-141.84;53.33
15260;BME280;34462;51.368;12.364;2023-02-27T11:57:17;19281.41;;;-141.84;54.23
15260;BME280;34462;51.368;12.364;2023-02-27T11:59:54;19263.09;;;-141.84;54.15
15260;BME280;34462;51.368;12.364;2023-02-27T12:02:44;19281.41;;;-141.84;53.93
15260;BME280;34462;51.368;12.364;2023-02-27T12:05:17;19261.06;;;-141.84;54.57
15260;BME280;34462;51.368;12.364;2023-02-27T12:07:51;19295.63;;;-141.84;53.32
15260;BME280;34462;51.368;12.364;2023-02-27T12:10:26;19342.34;;;-141.84;51.54
15260;BME280;34462;51.368;12.364;2023-02-27T12:13:02;19279.38;;;-141.84;52.03
15260;BME280;34462;51.368;12.364;2023-02-27T12:15:42;19283.44;;;-141.84;52.69
15260;BME280;34462;51.368;12.364;2023-02-27T12:18:18;19279.38;;;-141.84;52.68
15260;BME280;34462;51.368;12.364;2023-02-27T12:20:54;19307.81;;;-141.84;52.57
15260;BME280;34462;51.368;12.364;2023-02-27T12:23:33;19265.13;;;-141.84;52.17
15260;BME280;34462;51.368;12.364;2023-02-27T12:26:11;19248.88;;;-141.84;52.99
15260;BME280;34462;51.368;12.364;2023-02-27T12:28:54;19311.88;;;-141.84;52.18
15260;BME280;34462;51.368;12.364;2023-02-27T12:31:37;19297.66;;;-141.84;52.80
15260;BME280;34462;51.368;12.364;2023-02-27T12:34:20;19303.75;;;-141.84;52.75
15260;BME280;34462;51.368;12.364;2023-02-27T12:36:53;19334.22;;;-141.84;51.54
15260;BME280;34462;51.368;12.364;2023-02-27T12:39:24;19307.81;;;-141.84;52.48
15260;BME280;34462;51.368;12.364;2023-02-27T12:42:30;19281.41;;;-141.84;52.98
15260;BME280;34462;51.368;12.364;2023-02-27T12:45:37;19277.34;;;-141.84;53.34
15260;BME280;34462;51.368;12.364;2023-02-27T12:48:22;19269.22;;;-141.84;53.69
15260;BME280;34462;51.368;12.364;2023-02-27T12:51:04;19263.09;;;-141.84;54.35
15260;BME280;34462;51.368;12.364;2023-02-27T12:54:03;19234.66;;;-141.84;54.38
15260;BME280;34462;51.368;12.364;2023-02-27T12:56:47;19269.22;;;-141.84;54.47
15260;BME280;34462;51.368;12.364;2023-02-27T12:59:49;19279.38;;;-141.84;53.32
15260;BME280;34462;51.368;12.364;2023-02-27T13:02:49;19234.66;;;-141.84;54.71
15260;BME280;34462;51.368;12.364;2023-02-27T13:05:31;19238.72;;;-141.84;55.25
15260;BME280;34462;51.368;12.364;2023-02-27T13:08:15;19202.16;;;-141.84;54.98
15260;BME280;34462;51.368;12.364;2023-02-27T13:10:52;19212.31;;;-141.84;55.52
15260;BME280;34462;51.368;12.364;2023-02-27T13:13:32;19173.69;;;-141.84;56.48
15260;BME280;34462;51.368;12.364;2023-02-27T13:16:12;19169.63;;;-141.84;56.81
15260;BME280;34462;51.368;12.364;2023-02-27T13:18:47;19171.66;;;-141.84;57.22
15260;BME280;34462;51.368;12.364;2023-02-27T13:21:26;19228.56;;;-141.84;56.04
15260;BME280;34462;51.368;12.364;2023-02-27T13:24:11;19226.53;;;-141.84;55.34